Milford, Texas
Current Conditions -  °F | °C
As of 1:15 PM on Friday 28 Nov 2014 (Local Time) from KINJ Reporting Station
Clear Clear  
Wind Chill: 66°   Ceiling: Unl
Heat Index: 66°   Visibility: 10mi
Dew Point: 50°   Wind: 24mph
Humidity: 55%   Direction: 190°S
Pressure: 30.14"   Gusts: NA
Location:  32.12°N, 96.95°W
Report Text: KINJ 281915Z AUTO 19021KT 10SM CLR 19/10 A3014 RMK AO2 T01910098
Loading
Personal Weather Stations






























Interactive Weather Map New forecast layout! Learn more

10-Day Weather Forecast

Advertisements
Track Severe Weather on mobile